LiveATC.Net - Listen to live air traffic control over the Internet! Contact LiveATC.net for advertising information


ICAO: CYXE  IATA: YXE   Airport: John G. Diefenbaker International Airport
City: Saskatoon   State/Province: Saskatchewan
Country: Canada   Continent: North America
CYXE METAR Weather: CYXE 271600Z 20006KT 15SM SKC 04/01 A3028 RMK SLP279
CYXE Flight Activity (FlightAware)
CYXE Gnd/Twr/App/Center
Feed Status: DOWN
Last heard on: 2015-04-14 17:27:03 (12 days 23 hours 36 minutes ago)
CYXE Gnd/Twr/App/Center Audio Archives
FacilityFrequency
Saskatoon Arrival/Departure119.900
Saskatoon Ground121.900
Saskatoon Tower118.300
Winnipeg Centre134.325


NOTICE

Unauthorized use prohibited. See LiveATC.net Terms of Service


Find LiveATC Audio Streams


Airport/ARTCC Code

Frequency
(e.g., 124.400, 128.75)
Site-wide search

Browse LiveATC Feeds
LiveATC Coverage Map
Top 50 LiveATC Feeds
Bad Weather Areas

LiveATC FAQ
Offer a LiveATC Feed
Contact LiveATC.net
Press Inquiries

LiveATC on iPhone
LiveATC on Android

LiveATC Mobile
(Mobile browser)

ATC Audio Archives
Interesting Recordings

LiveATC Forums


Home Page
About LiveATC.net
Make a Donation
LiveATC Bookstore

Terms of Use
Privacy Policy

ATC/Radar Sites
U.S. ARTCC Freqs
Canadian Air Freqs

AIRMETs/SIGMETs

FAA Airport Status
Nat'l Airspace Status
Arrival Demand Charts


Server Software By:
Icecast.org
Liquidsoap

Please make a donation to help us keep growing!